sensor_id;sensor_type;location;lat;lon;timestamp;pressure;altitude;pressure_sealevel;temperature;humidity
10978;BME280;5542;48.272;10.794;2022-11-30T00:01:08;95834.81;;;3.76;98.85
10978;BME280;5542;48.272;10.794;2022-11-30T00:03:35;95836.06;;;3.80;99.02
10978;BME280;5542;48.272;10.794;2022-11-30T00:06:03;95846.88;;;3.84;98.67
10978;BME280;5542;48.272;10.794;2022-11-30T00:08:31;95837.00;;;3.94;98.06
10978;BME280;5542;48.272;10.794;2022-11-30T00:10:58;95839.16;;;3.91;98.13
10978;BME280;5542;48.272;10.794;2022-11-30T00:13:25;95842.22;;;3.94;97.33
10978;BME280;5542;48.272;10.794;2022-11-30T00:15:51;95840.03;;;3.98;97.03
10978;BME280;5542;48.272;10.794;2022-11-30T00:18:18;95846.16;;;3.90;96.58
10978;BME280;5542;48.272;10.794;2022-11-30T00:20:44;95837.03;;;3.79;97.21
10978;BME280;5542;48.272;10.794;2022-11-30T00:23:11;95839.63;;;3.79;97.97
10978;BME280;5542;48.272;10.794;2022-11-30T00:25:39;95843.13;;;3.87;98.14
10978;BME280;5542;48.272;10.794;2022-11-30T00:28:06;95840.34;;;3.88;97.47
10978;BME280;5542;48.272;10.794;2022-11-30T00:30:32;95843.94;;;3.87;97.25
10978;BME280;5542;48.272;10.794;2022-11-30T00:32:59;95846.72;;;3.85;96.74
10978;BME280;5542;48.272;10.794;2022-11-30T00:35:25;95853.81;;;3.77;97.01
10978;BME280;5542;48.272;10.794;2022-11-30T00:37:52;95849.41;;;3.77;95.25
10978;BME280;5542;48.272;10.794;2022-11-30T00:40:19;95849.16;;;3.72;96.32
10978;BME280;5542;48.272;10.794;2022-11-30T00:42:47;95857.56;;;3.74;96.73
10978;BME280;5542;48.272;10.794;2022-11-30T00:45:14;95867.81;;;3.76;95.60
10978;BME280;5542;48.272;10.794;2022-11-30T00:47:41;95864.41;;;3.75;95.66
10978;BME280;5542;48.272;10.794;2022-11-30T00:50:08;95861.81;;;3.75;95.25
10978;BME280;5542;48.272;10.794;2022-11-30T00:52:35;95867.97;;;3.74;95.51
10978;BME280;5542;48.272;10.794;2022-11-30T00:55:02;95866.03;;;3.76;95.93
10978;BME280;5542;48.272;10.794;2022-11-30T00:57:28;95868.66;;;3.98;94.62
10978;BME280;5542;48.272;10.794;2022-11-30T00:59:56;95870.50;;;3.82;95.38
10978;BME280;5542;48.272;10.794;2022-11-30T01:02:23;95872.78;;;3.71;96.64
10978;BME280;5542;48.272;10.794;2022-11-30T01:04:49;95872.56;;;3.72;97.10
10978;BME280;5542;48.272;10.794;2022-11-30T01:07:16;95870.44;;;3.76;96.13
10978;BME280;5542;48.272;10.794;2022-11-30T01:09:43;95867.00;;;3.60;96.83
10978;BME280;5542;48.272;10.794;2022-11-30T01:12:09;95876.63;;;3.60;96.95
10978;BME280;5542;48.272;10.794;2022-11-30T01:14:36;95877.59;;;3.59;96.69
10978;BME280;5542;48.272;10.794;2022-11-30T01:17:04;95882.47;;;3.47;96.79
10978;BME280;5542;48.272;10.794;2022-11-30T01:19:30;95886.50;;;3.50;96.46
10978;BME280;5542;48.272;10.794;2022-11-30T01:21:57;95881.00;;;3.59;95.61
10978;BME280;5542;48.272;10.794;2022-11-30T01:24:23;95887.03;;;3.60;95.20
10978;BME280;5542;48.272;10.794;2022-11-30T01:26:50;95887.81;;;3.46;95.87
10978;BME280;5542;48.272;10.794;2022-11-30T01:29:17;95881.56;;;3.55;96.32
10978;BME280;5542;48.272;10.794;2022-11-30T01:31:43;95878.31;;;3.68;94.50
10978;BME280;5542;48.272;10.794;2022-11-30T01:34:11;95884.94;;;3.70;94.49
10978;BME280;5542;48.272;10.794;2022-11-30T01:36:38;95887.81;;;3.46;95.26
10978;BME280;5542;48.272;10.794;2022-11-30T01:39:07;95884.16;;;3.40;95.92
10978;BME280;5542;48.272;10.794;2022-11-30T01:41:35;95882.09;;;3.36;96.82
10978;BME280;5542;48.272;10.794;2022-11-30T01:47:09;95888.28;;;3.34;97.58
10978;BME280;5542;48.272;10.794;2022-11-30T01:49:40;95889.16;;;3.42;97.81
10978;BME280;5542;48.272;10.794;2022-11-30T01:52:11;95885.59;;;3.43;97.39
10978;BME280;5542;48.272;10.794;2022-11-30T01:54:42;95894.22;;;3.43;97.51
10978;BME280;5542;48.272;10.794;2022-11-30T01:57:13;95892.06;;;3.47;96.74
10978;BME280;5542;48.272;10.794;2022-11-30T01:59:42;95896.69;;;3.37;97.20
10978;BME280;5542;48.272;10.794;2022-11-30T02:02:09;95893.50;;;3.34;97.09
10978;BME280;5542;48.272;10.794;2022-11-30T02:04:37;95900.38;;;3.27;97.76
10978;BME280;5542;48.272;10.794;2022-11-30T02:07:06;95891.69;;;3.20;98.95
10978;BME280;5542;48.272;10.794;2022-11-30T02:09:37;95893.56;;;3.12;99.64
10978;BME280;5542;48.272;10.794;2022-11-30T02:12:07;95901.75;;;3.23;98.60
10978;BME280;5542;48.272;10.794;2022-11-30T02:14:42;95900.09;;;3.22;98.85
10978;BME280;5542;48.272;10.794;2022-11-30T02:17:16;95895.28;;;3.19;99.78
10978;BME280;5542;48.272;10.794;2022-11-30T02:22:56;95895.81;;;3.29;98.27
10978;BME280;5542;48.272;10.794;2022-11-30T02:25:29;95903.81;;;3.28;98.74
10978;BME280;5542;48.272;10.794;2022-11-30T02:28:11;95906.69;;;3.33;98.89
10978;BME280;5542;48.272;10.794;2022-11-30T02:30:47;95905.88;;;3.47;96.42
10978;BME280;5542;48.272;10.794;2022-11-30T02:33:19;95902.09;;;3.20;97.55
10978;BME280;5542;48.272;10.794;2022-11-30T02:35:50;95910.16;;;3.25;97.12
10978;BME280;5542;48.272;10.794;2022-11-30T02:38:20;95906.72;;;3.10;97.52
10978;BME280;5542;48.272;10.794;2022-11-30T02:40:47;95901.75;;;3.23;97.58
10978;BME280;5542;48.272;10.794;2022-11-30T02:43:15;95894.38;;;3.27;96.58
10978;BME280;5542;48.272;10.794;2022-11-30T02:45:49;95900.00;;;3.16;96.79
10978;BME280;5542;48.272;10.794;2022-11-30T02:48:22;95901.53;;;3.10;98.04
10978;BME280;5542;48.272;10.794;2022-11-30T02:50:55;95894.97;;;2.99;98.93
10978;BME280;5542;48.272;10.794;2022-11-30T02:53:24;95900.88;;;3.08;99.13
10978;BME280;5542;48.272;10.794;2022-11-30T02:55:52;95907.19;;;3.14;99.30
10978;BME280;5542;48.272;10.794;2022-11-30T02:58:20;95897.75;;;3.13;98.07
10978;BME280;5542;48.272;10.794;2022-11-30T03:00:48;95903.94;;;3.12;97.70
10978;BME280;5542;48.272;10.794;2022-11-30T03:03:15;95897.22;;;3.17;97.39
10978;BME280;5542;48.272;10.794;2022-11-30T03:05:41;95899.75;;;3.11;97.93
10978;BME280;5542;48.272;10.794;2022-11-30T03:08:08;95894.72;;;3.09;98.14
10978;BME280;5542;48.272;10.794;2022-11-30T03:10:35;95901.53;;;3.10;97.10
10978;BME280;5542;48.272;10.794;2022-11-30T03:13:01;95905.38;;;2.99;98.10
10978;BME280;5542;48.272;10.794;2022-11-30T03:15:28;95913.53;;;3.11;97.99
10978;BME280;5542;48.272;10.794;2022-11-30T03:18:00;95909.94;;;3.12;97.69
10978;BME280;5542;48.272;10.794;2022-11-30T03:20:26;95904.47;;;3.07;97.89
10978;BME280;5542;48.272;10.794;2022-11-30T03:22:53;95906.00;;;3.01;98.49
10978;BME280;5542;48.272;10.794;2022-11-30T03:25:19;95915.31;;;2.96;98.76
10978;BME280;5542;48.272;10.794;2022-11-30T03:27:46;95909.47;;;2.94;99.18
10978;BME280;5542;48.272;10.794;2022-11-30T03:30:13;95907.25;;;2.91;99.33
10978;BME280;5542;48.272;10.794;2022-11-30T03:32:39;95907.78;;;3.01;98.90
10978;BME280;5542;48.272;10.794;2022-11-30T03:35:08;95908.41;;;3.03;98.61
10978;BME280;5542;48.272;10.794;2022-11-30T03:37:34;95913.44;;;3.04;98.63
10978;BME280;5542;48.272;10.794;2022-11-30T03:40:01;95919.34;;;3.13;98.37
10978;BME280;5542;48.272;10.794;2022-11-30T03:42:27;95915.00;;;3.14;97.99
10978;BME280;5542;48.272;10.794;2022-11-30T03:44:54;95915.88;;;3.06;98.38
10978;BME280;5542;48.272;10.794;2022-11-30T03:47:21;95921.25;;;3.04;98.43
10978;BME280;5542;48.272;10.794;2022-11-30T03:49:47;95917.19;;;3.02;98.27
10978;BME280;5542;48.272;10.794;2022-11-30T03:52:15;95915.47;;;2.94;98.53
10978;BME280;5542;48.272;10.794;2022-11-30T03:54:42;95924.38;;;3.00;98.81
10978;BME280;5542;48.272;10.794;2022-11-30T03:57:08;95921.59;;;3.01;98.36
10978;BME280;5542;48.272;10.794;2022-11-30T03:59:35;95918.25;;;2.93;99.13
10978;BME280;5542;48.272;10.794;2022-11-30T04:02:01;95923.09;;;2.96;99.80
10978;BME280;5542;48.272;10.794;2022-11-30T04:04:28;95918.66;;;3.04;99.85
10978;BME280;5542;48.272;10.794;2022-11-30T04:06:54;95920.81;;;3.16;99.22
10978;BME280;5542;48.272;10.794;2022-11-30T04:09:22;95922.88;;;3.20;99.07
10978;BME280;5542;48.272;10.794;2022-11-30T04:11:49;95921.53;;;3.24;98.75
10978;BME280;5542;48.272;10.794;2022-11-30T04:14:16;95907.38;;;3.27;97.00
10978;BME280;5542;48.272;10.794;2022-11-30T04:16:42;95922.25;;;3.18;96.50
10978;BME280;5542;48.272;10.794;2022-11-30T04:19:09;95926.28;;;3.21;96.27
10978;BME280;5542;48.272;10.794;2022-11-30T04:21:35;95919.00;;;3.16;96.78
10978;BME280;5542;48.272;10.794;2022-11-30T04:24:02;95922.06;;;3.20;96.76
10978;BME280;5542;48.272;10.794;2022-11-30T04:26:30;95917.50;;;3.22;95.63
10978;BME280;5542;48.272;10.794;2022-11-30T04:28:57;95921.94;;;3.13;96.01
10978;BME280;5542;48.272;10.794;2022-11-30T04:31:23;95918.13;;;3.09;96.59
10978;BME280;5542;48.272;10.794;2022-11-30T04:33:51;95919.66;;;3.18;96.42
10978;BME280;5542;48.272;10.794;2022-11-30T04:36:19;95922.13;;;3.12;96.36
10978;BME280;5542;48.272;10.794;2022-11-30T04:38:46;95923.13;;;3.11;96.46
10978;BME280;5542;48.272;10.794;2022-11-30T04:41:13;95919.53;;;3.12;96.52
10978;BME280;5542;48.272;10.794;2022-11-30T04:43:41;95917.22;;;3.17;95.98
10978;BME280;5542;48.272;10.794;2022-11-30T04:46:07;95922.22;;;3.03;96.17
10978;BME280;5542;48.272;10.794;2022-11-30T04:48:34;95919.44;;;3.05;96.70
10978;BME280;5542;48.272;10.794;2022-11-30T04:51:02;95923.03;;;3.04;96.43
10978;BME280;5542;48.272;10.794;2022-11-30T04:53:30;95915.53;;;3.09;96.88
10978;BME280;5542;48.272;10.794;2022-11-30T04:55:57;95917.75;;;3.12;97.02
10978;BME280;5542;48.272;10.794;2022-11-30T04:58:23;95917.94;;;3.25;96.38
10978;BME280;5542;48.272;10.794;2022-11-30T05:00:53;95918.38;;;2.99;97.26
10978;BME280;5542;48.272;10.794;2022-11-30T05:03:20;95915.53;;;3.09;97.58
10978;BME280;5542;48.272;10.794;2022-11-30T05:05:47;95920.97;;;2.99;97.76
10978;BME280;5542;48.272;10.794;2022-11-30T05:08:13;95922.94;;;3.12;96.72
10978;BME280;5542;48.272;10.794;2022-11-30T05:10:40;95925.19;;;3.00;96.87
10978;BME280;5542;48.272;10.794;2022-11-30T05:13:06;95929.97;;;2.89;97.99
10978;BME280;5542;48.272;10.794;2022-11-30T05:15:33;95925.28;;;2.84;98.34
10978;BME280;5542;48.272;10.794;2022-11-30T05:18:01;95929.63;;;2.92;97.80
10978;BME280;5542;48.272;10.794;2022-11-30T05:20:28;95926.16;;;2.99;97.20
10978;BME280;5542;48.272;10.794;2022-11-30T05:22:54;95934.53;;;2.87;97.40
10978;BME280;5542;48.272;10.794;2022-11-30T05:25:21;95928.34;;;2.88;97.45
10978;BME280;5542;48.272;10.794;2022-11-30T05:27:48;95926.84;;;2.93;97.33
10978;BME280;5542;48.272;10.794;2022-11-30T05:30:15;95922.22;;;3.03;96.71
10978;BME280;5542;48.272;10.794;2022-11-30T05:32:41;95928.56;;;3.01;95.93
10978;BME280;5542;48.272;10.794;2022-11-30T05:35:10;95934.06;;;2.83;95.99
10978;BME280;5542;48.272;10.794;2022-11-30T05:37:36;95934.81;;;2.92;96.59
10978;BME280;5542;48.272;10.794;2022-11-30T05:40:04;95936.81;;;2.90;95.69
10978;BME280;5542;48.272;10.794;2022-11-30T05:42:34;95940.44;;;2.80;95.70
10978;BME280;5542;48.272;10.794;2022-11-30T05:45:01;95940.59;;;2.79;95.21
10978;BME280;5542;48.272;10.794;2022-11-30T05:47:28;95943.09;;;2.72;96.15
10978;BME280;5542;48.272;10.794;2022-11-30T05:49:55;95946.50;;;2.73;96.41
10978;BME280;5542;48.272;10.794;2022-11-30T05:52:23;95949.94;;;2.65;97.71
10978;BME280;5542;48.272;10.794;2022-11-30T05:54:49;95945.22;;;2.69;97.89
10978;BME280;5542;48.272;10.794;2022-11-30T05:57:16;95948.28;;;2.72;96.81
10978;BME280;5542;48.272;10.794;2022-11-30T05:59:42;95947.13;;;2.75;97.21
10978;BME280;5542;48.272;10.794;2022-11-30T06:02:09;95946.56;;;2.65;97.71
10978;BME280;5542;48.272;10.794;2022-11-30T06:04:36;95947.81;;;2.92;96.83
10978;BME280;5542;48.272;10.794;2022-11-30T06:07:03;95953.66;;;2.71;97.09
10978;BME280;5542;48.272;10.794;2022-11-30T06:09:31;95953.47;;;2.72;97.58
10978;BME280;5542;48.272;10.794;2022-11-30T06:11:58;95955.19;;;2.80;97.07
10978;BME280;5542;48.272;10.794;2022-11-30T06:14:24;95953.25;;;2.82;95.62
10978;BME280;5542;48.272;10.794;2022-11-30T06:16:51;95951.78;;;2.79;96.25
10978;BME280;5542;48.272;10.794;2022-11-30T06:19:17;95955.00;;;2.67;97.28
10978;BME280;5542;48.272;10.794;2022-11-30T06:21:44;95955.94;;;2.66;97.76
10978;BME280;5542;48.272;10.794;2022-11-30T06:24:11;95953.78;;;2.77;96.62
10978;BME280;5542;48.272;10.794;2022-11-30T06:26:40;95962.03;;;2.81;96.56
10978;BME280;5542;48.272;10.794;2022-11-30T06:29:07;95957.78;;;2.80;96.59
10978;BME280;5542;48.272;10.794;2022-11-30T06:31:34;95954.09;;;2.74;96.41
10978;BME280;5542;48.272;10.794;2022-11-30T06:34:01;95961.56;;;2.77;96.87
10978;BME280;5542;48.272;10.794;2022-11-30T06:36:28;95961.22;;;2.80;96.58
10978;BME280;5542;48.272;10.794;2022-11-30T06:38:55;95962.38;;;2.78;96.10
10978;BME280;5542;48.272;10.794;2022-11-30T06:41:22;95961.50;;;2.86;96.03
10978;BME280;5542;48.272;10.794;2022-11-30T06:43:50;95963.63;;;2.82;96.03
10978;BME280;5542;48.272;10.794;2022-11-30T06:46:17;95961.00;;;2.67;96.55
10978;BME280;5542;48.272;10.794;2022-11-30T06:48:46;95967.28;;;2.73;96.59
10978;BME280;5542;48.272;10.794;2022-11-30T06:51:14;95971.19;;;2.69;97.35
10978;BME280;5542;48.272;10.794;2022-11-30T06:53:42;95969.69;;;2.74;97.91
10978;BME280;5542;48.272;10.794;2022-11-30T06:56:09;95973.78;;;2.69;97.57
10978;BME280;5542;48.272;10.794;2022-11-30T06:58:37;95970.38;;;2.68;97.68
10978;BME280;5542;48.272;10.794;2022-11-30T07:01:05;95970.44;;;2.83;97.13
10978;BME280;5542;48.272;10.794;2022-11-30T07:03:32;95974.78;;;2.91;95.03
10978;BME280;5542;48.272;10.794;2022-11-30T07:05:59;95981.63;;;2.83;95.29
10978;BME280;5542;48.272;10.794;2022-11-30T07:08:25;95978.94;;;2.77;95.48
10978;BME280;5542;48.272;10.794;2022-11-30T07:10:52;95977.03;;;2.71;96.45
10978;BME280;5542;48.272;10.794;2022-11-30T07:13:19;95975.91;;;2.65;95.93
10978;BME280;5542;48.272;10.794;2022-11-30T07:15:45;95978.41;;;2.59;96.44
10978;BME280;5542;48.272;10.794;2022-11-30T07:18:13;95977.91;;;2.63;96.85
10978;BME280;5542;48.272;10.794;2022-11-30T07:20:41;95977.91;;;2.63;95.89
10978;BME280;5542;48.272;10.794;2022-11-30T07:23:08;95964.44;;;2.60;95.98
10978;BME280;5542;48.272;10.794;2022-11-30T07:25:52;95968.34;;;2.55;96.39
10978;BME280;5542;48.272;10.794;2022-11-30T07:28:32;95970.69;;;2.73;94.96
10978;BME280;5542;48.272;10.794;2022-11-30T07:30:59;95965.09;;;2.62;93.95
10978;BME280;5542;48.272;10.794;2022-11-30T07:33:27;95964.97;;;2.55;93.66
10978;BME280;5542;48.272;10.794;2022-11-30T07:35:53;95976.00;;;2.57;94.19
10978;BME280;5542;48.272;10.794;2022-11-30T07:38:20;95976.03;;;2.49;94.21
10978;BME280;5542;48.272;10.794;2022-11-30T07:40:47;95977.66;;;2.50;94.47
10978;BME280;5542;48.272;10.794;2022-11-30T07:43:13;95984.69;;;2.64;94.03
10978;BME280;5542;48.272;10.794;2022-11-30T07:45:40;95983.41;;;2.60;94.10
10978;BME280;5542;48.272;10.794;2022-11-30T07:48:07;95986.66;;;2.62;92.77
10978;BME280;5542;48.272;10.794;2022-11-30T07:50:36;95983.41;;;2.60;92.72
10978;BME280;5542;48.272;10.794;2022-11-30T07:53:02;95990.13;;;2.54;93.32
10978;BME280;5542;48.272;10.794;2022-11-30T07:55:30;95992.94;;;2.45;93.51
10978;BME280;5542;48.272;10.794;2022-11-30T07:57:56;95991.72;;;2.55;92.46
10978;BME280;5542;48.272;10.794;2022-11-30T08:00:23;95990.91;;;2.55;92.02
10978;BME280;5542;48.272;10.794;2022-11-30T08:02:50;95995.19;;;2.48;93.39
10978;BME280;5542;48.272;10.794;2022-11-30T08:05:16;95996.69;;;2.65;92.55
10978;BME280;5542;48.272;10.794;2022-11-30T08:07:45;95996.25;;;2.62;92.23
10978;BME280;5542;48.272;10.794;2022-11-30T08:10:15;95993.69;;;2.53;93.16
10978;BME280;5542;48.272;10.794;2022-11-30T08:12:42;95999.47;;;2.64;91.53
10978;BME280;5542;48.272;10.794;2022-11-30T08:15:09;96007.09;;;2.65;91.04
10978;BME280;5542;48.272;10.794;2022-11-30T08:17:36;96003.75;;;2.56;90.67
10978;BME280;5542;48.272;10.794;2022-11-30T08:20:04;96002.63;;;2.51;90.77
10978;BME280;5542;48.272;10.794;2022-11-30T08:22:31;96005.34;;;2.58;91.11
10978;BME280;5542;48.272;10.794;2022-11-30T08:24:59;96008.94;;;2.56;91.14
10978;BME280;5542;48.272;10.794;2022-11-30T08:27:26;96005.50;;;2.56;89.31
10978;BME280;5542;48.272;10.794;2022-11-30T08:29:52;95998.16;;;2.68;90.39
10978;BME280;5542;48.272;10.794;2022-11-30T08:32:19;96002.88;;;2.64;89.19
10978;BME280;5542;48.272;10.794;2022-11-30T08:34:46;96002.31;;;2.46;90.21
10978;BME280;5542;48.272;10.794;2022-11-30T08:37:12;96003.75;;;2.56;90.10
10978;BME280;5542;48.272;10.794;2022-11-30T08:39:39;96004.66;;;2.64;90.27
10978;BME280;5542;48.272;10.794;2022-11-30T08:42:07;96012.28;;;2.65;89.95
10978;BME280;5542;48.272;10.794;2022-11-30T08:44:33;96025.78;;;2.61;90.41
10978;BME280;5542;48.272;10.794;2022-11-30T08:47:00;96017.47;;;2.65;91.02
10978;BME280;5542;48.272;10.794;2022-11-30T08:49:27;96018.75;;;2.69;90.51
10978;BME280;5542;48.272;10.794;2022-11-30T08:51:55;96027.50;;;2.76;88.79
10978;BME280;5542;48.272;10.794;2022-11-30T08:54:21;96017.75;;;2.70;89.17
10978;BME280;5542;48.272;10.794;2022-11-30T08:56:48;96022.00;;;2.71;89.17
10978;BME280;5542;48.272;10.794;2022-11-30T08:59:16;96015.56;;;2.59;89.76
10978;BME280;5542;48.272;10.794;2022-11-30T09:01:43;96015.34;;;2.69;90.25
10978;BME280;5542;48.272;10.794;2022-11-30T09:04:09;96018.41;;;2.72;91.01
10978;BME280;5542;48.272;10.794;2022-11-30T09:06:36;96021.47;;;2.76;90.57
10978;BME280;5542;48.272;10.794;2022-11-30T09:09:03;96022.91;;;2.78;89.67
10978;BME280;5542;48.272;10.794;2022-11-30T09:11:31;96016.91;;;2.78;89.67
10978;BME280;5542;48.272;10.794;2022-11-30T09:14:00;96018.75;;;2.69;90.40
10978;BME280;5542;48.272;10.794;2022-11-30T09:16:29;96013.91;;;2.66;91.63
10978;BME280;5542;48.272;10.794;2022-11-30T09:18:56;96027.50;;;2.76;92.05
10978;BME280;5542;48.272;10.794;2022-11-30T09:21:24;96031.19;;;2.82;90.02
10978;BME280;5542;48.272;10.794;2022-11-30T09:23:53;96026.59;;;2.84;90.61
10978;BME280;5542;48.272;10.794;2022-11-30T09:26:21;96029.84;;;2.86;90.47
10978;BME280;5542;48.272;10.794;2022-11-30T09:28:50;96030.84;;;2.85;91.06
10978;BME280;5542;48.272;10.794;2022-11-30T09:31:19;96033.56;;;2.92;91.04
10978;BME280;5542;48.272;10.794;2022-11-30T09:33:47;96034.47;;;2.99;91.52
10978;BME280;5542;48.272;10.794;2022-11-30T09:36:16;96028.63;;;3.20;89.53
10978;BME280;5542;48.272;10.794;2022-11-30T09:38:43;96019.81;;;3.06;89.50
10978;BME280;5542;48.272;10.794;2022-11-30T09:41:26;96021.41;;;3.07;90.02
10978;BME280;5542;48.272;10.794;2022-11-30T09:44:02;96022.69;;;3.11;89.60
10978;BME280;5542;48.272;10.794;2022-11-30T09:46:37;96023.69;;;3.10;89.06
10978;BME280;5542;48.272;10.794;2022-11-30T09:49:08;96022.63;;;2.96;89.59
10978;BME280;5542;48.272;10.794;2022-11-30T09:51:44;96020.50;;;3.00;89.20
10978;BME280;5542;48.272;10.794;2022-11-30T09:54:14;96012.13;;;2.90;89.27
10978;BME280;5542;48.272;10.794;2022-11-30T09:56:43;96014.88;;;3.11;89.27
10978;BME280;5542;48.272;10.794;2022-11-30T09:59:16;96009.34;;;3.14;88.67
10978;BME280;5542;48.272;10.794;2022-11-30T10:01:45;96011.72;;;3.01;89.30
10978;BME280;5542;48.272;10.794;2022-11-30T10:04:20;96014.78;;;3.04;89.73
10978;BME280;5542;48.272;10.794;2022-11-30T10:06:53;96022.16;;;3.16;87.73
10978;BME280;5542;48.272;10.794;2022-11-30T10:09:29;96020.78;;;3.05;89.20
10978;BME280;5542;48.272;10.794;2022-11-30T10:12:03;96005.88;;;2.99;89.40
10978;BME280;5542;48.272;10.794;2022-11-30T10:14:57;96009.75;;;3.03;89.34
10978;BME280;5542;48.272;10.794;2022-11-30T10:17:38;96004.03;;;3.07;88.83
10978;BME280;5542;48.272;10.794;2022-11-30T10:20:39;96005.31;;;3.12;88.77
10978;BME280;5542;48.272;10.794;2022-11-30T10:23:20;96004.53;;;3.26;88.21
10978;BME280;5542;48.272;10.794;2022-11-30T10:25:54;96007.66;;;3.21;87.88
10978;BME280;5542;48.272;10.794;2022-11-30T10:28:29;96002.94;;;3.25;88.20
10978;BME280;5542;48.272;10.794;2022-11-30T10:31:00;96005.53;;;3.25;87.88
10978;BME280;5542;48.272;10.794;2022-11-30T10:33:31;96001.09;;;3.11;88.83
10978;BME280;5542;48.272;10.794;2022-11-30T10:36:07;96003.03;;;3.31;87.98
10978;BME280;5542;48.272;10.794;2022-11-30T10:38:40;95995.59;;;3.28;86.76
10978;BME280;5542;48.272;10.794;2022-11-30T10:41:11;96001.94;;;3.26;86.55
10978;BME280;5542;48.272;10.794;2022-11-30T10:43:43;95997.78;;;3.17;87.17
10978;BME280;5542;48.272;10.794;2022-11-30T10:46:18;96000.28;;;3.10;88.44
10978;BME280;5542;48.272;10.794;2022-11-30T10:48:49;95994.16;;;3.03;87.82
10978;BME280;5542;48.272;10.794;2022-11-30T10:51:19;95992.22;;;3.05;87.59
10978;BME280;5542;48.272;10.794;2022-11-30T10:53:45;95990.22;;;3.07;88.28
10978;BME280;5542;48.272;10.794;2022-11-30T10:56:13;95991.31;;;3.13;87.55
10978;BME280;5542;48.272;10.794;2022-11-30T10:58:44;95985.84;;;3.07;87.15
10978;BME280;5542;48.272;10.794;2022-11-30T11:01:30;95991.84;;;3.08;88.16
10978;BME280;5542;48.272;10.794;2022-11-30T11:04:07;95990.22;;;3.07;87.70
10978;BME280;5542;48.272;10.794;2022-11-30T11:06:40;95989.91;;;3.10;87.66
10978;BME280;5542;48.272;10.794;2022-11-30T11:09:30;95992.66;;;3.08;88.27
10978;BME280;5542;48.272;10.794;2022-11-30T11:11:58;95996.31;;;2.99;88.42
10978;BME280;5542;48.272;10.794;2022-11-30T11:14:27;96001.00;;;3.04;88.58
10978;BME280;5542;48.272;10.794;2022-11-30T11:16:56;95998.03;;;3.07;87.74
10978;BME280;5542;48.272;10.794;2022-11-30T11:19:35;95994.53;;;3.00;86.78
10978;BME280;5542;48.272;10.794;2022-11-30T11:22:05;95991.69;;;2.87;87.29
10978;BME280;5542;48.272;10.794;2022-11-30T11:24:32;95995.91;;;2.88;86.71
10978;BME280;5542;48.272;10.794;2022-11-30T11:26:59;95999.31;;;2.88;86.97
10978;BME280;5542;48.272;10.794;2022-11-30T11:29:29;95998.72;;;2.78;87.39
10978;BME280;5542;48.272;10.794;2022-11-30T11:32:22;95989.78;;;2.80;87.33
10978;BME280;5542;48.272;10.794;2022-11-30T11:34:50;95994.69;;;2.98;87.27
10978;BME280;5542;48.272;10.794;2022-11-30T11:37:20;95990.66;;;2.96;87.96
10978;BME280;5542;48.272;10.794;2022-11-30T11:39:59;95992.13;;;3.13;86.71
10978;BME280;5542;48.272;10.794;2022-11-30T11:42:29;95987.00;;;3.05;87.04
10978;BME280;5542;48.272;10.794;2022-11-30T11:44:57;95987.06;;;2.97;87.57
10978;BME280;5542;48.272;10.794;2022-11-30T11:47:26;95986.09;;;2.98;88.51
10978;BME280;5542;48.272;10.794;2022-11-30T11:50:21;95975.91;;;3.11;88.74
10978;BME280;5542;48.272;10.794;2022-11-30T11:53:05;95982.84;;;3.19;87.41
10978;BME280;5542;48.272;10.794;2022-11-30T11:55:33;95979.78;;;3.15;87.28
10978;BME280;5542;48.272;10.794;2022-11-30T11:58:02;95979.50;;;3.10;87.94
10978;BME280;5542;48.272;10.794;2022-11-30T12:00:29;95986.25;;;3.19;87.08
10978;BME280;5542;48.272;10.794;2022-11-30T12:03:00;95984.44;;;3.20;87.80
10978;BME280;5542;48.272;10.794;2022-11-30T12:05:31;95985.47;;;3.33;86.24
10978;BME280;5542;48.272;10.794;2022-11-30T12:08:08;95986.28;;;3.34;85.83
10978;BME280;5542;48.272;10.794;2022-11-30T12:10:40;95985.19;;;3.28;85.57
10978;BME280;5542;48.272;10.794;2022-11-30T12:13:13;95992.06;;;3.21;85.18
10978;BME280;5542;48.272;10.794;2022-11-30T12:15:50;95990.22;;;3.07;85.83
10978;BME280;5542;48.272;10.794;2022-11-30T12:18:21;95986.94;;;3.13;86.40
10978;BME280;5542;48.272;10.794;2022-11-30T12:20:54;95983.66;;;3.19;85.99
10978;BME280;5542;48.272;10.794;2022-11-30T12:26:20;95976.91;;;3.10;86.46
10978;BME280;5542;48.272;10.794;2022-11-30T12:29:09;95982.38;;;3.15;86.80
10978;BME280;5542;48.272;10.794;2022-11-30T12:31:49;95980.53;;;3.24;86.74
10978;BME280;5542;48.272;10.794;2022-11-30T12:34:24;95983.38;;;3.14;86.67
10978;BME280;5542;48.272;10.794;2022-11-30T12:36:59;95978.84;;;3.08;85.79
10978;BME280;5542;48.272;10.794;2022-11-30T12:39:37;95974.25;;;3.18;86.65
10978;BME280;5542;48.272;10.794;2022-11-30T12:42:11;95983.19;;;3.16;86.96
10978;BME280;5542;48.272;10.794;2022-11-30T12:44:48;95976.47;;;3.21;86.83
10978;BME280;5542;48.272;10.794;2022-11-30T12:47:28;95985.75;;;3.39;85.95
10978;BME280;5542;48.272;10.794;2022-11-30T12:50:15;95980.34;;;3.25;86.44
10978;BME280;5542;48.272;10.794;2022-11-30T12:52:52;95980.81;;;3.44;84.71
10978;BME280;5542;48.272;10.794;2022-11-30T12:55:29;95985.47;;;3.33;84.44
10978;BME280;5542;48.272;10.794;2022-11-30T12:58:05;95987.22;;;3.18;84.90
10978;BME280;5542;48.272;10.794;2022-11-30T13:00:38;95984.41;;;3.05;86.65
10978;BME280;5542;48.272;10.794;2022-11-30T13:03:34;95980.91;;;3.13;87.19
10978;BME280;5542;48.272;10.794;2022-11-30T13:06:09;95971.09;;;3.23;87.20
10978;BME280;5542;48.272;10.794;2022-11-30T13:08:43;95976.41;;;3.29;86.63
10978;BME280;5542;48.272;10.794;2022-11-30T13:11:16;95970.50;;;3.36;84.79
10978;BME280;5542;48.272;10.794;2022-11-30T13:13:48;95963.78;;;3.41;85.15
10978;BME280;5542;48.272;10.794;2022-11-30T13:16:17;95971.47;;;3.34;85.79
10978;BME280;5542;48.272;10.794;2022-11-30T13:18:46;95973.03;;;3.44;85.24
10978;BME280;5542;48.272;10.794;2022-11-30T13:21:20;95976.34;;;3.52;84.54
10978;BME280;5542;48.272;10.794;2022-11-30T13:23:54;95972.84;;;3.45;84.72
10978;BME280;5542;48.272;10.794;2022-11-30T13:26:28;95971.31;;;3.51;83.98
10978;BME280;5542;48.272;10.794;2022-11-30T13:29:10;95969.69;;;3.50;83.59
10978;BME280;5542;48.272;10.794;2022-11-30T13:31:44;95972.03;;;3.45;83.09